sensor_id;sensor_type;location;lat;lon;timestamp;P1;durP1;ratioP1;P2;durP2;ratioP2
76939;SDS011;65885;55.848;35.916;2023-04-24T00:02:24;3.80;;;2.35;;
76939;SDS011;65885;55.848;35.916;2023-04-24T00:04:52;3.95;;;2.38;;
76939;SDS011;65885;55.848;35.916;2023-04-24T00:07:19;2.75;;;2.47;;
76939;SDS011;65885;55.848;35.916;2023-04-24T00:09:48;3.97;;;2.00;;
76939;SDS011;65885;55.848;35.916;2023-04-24T00:12:16;4.15;;;2.50;;
76939;SDS011;65885;55.848;35.916;2023-04-24T00:14:44;3.38;;;2.30;;
76939;SDS011;65885;55.848;35.916;2023-04-24T00:17:11;3.65;;;2.80;;
76939;SDS011;65885;55.848;35.916;2023-04-24T00:19:39;4.05;;;2.47;;
76939;SDS011;65885;55.848;35.916;2023-04-24T00:22:07;3.92;;;2.60;;
76939;SDS011;65885;55.848;35.916;2023-04-24T00:24:35;5.35;;;2.67;;
76939;SDS011;65885;55.848;35.916;2023-04-24T00:27:04;5.75;;;2.50;;
76939;SDS011;65885;55.848;35.916;2023-04-24T00:29:32;3.75;;;2.53;;
76939;SDS011;65885;55.848;35.916;2023-04-24T00:31:59;3.83;;;2.08;;
76939;SDS011;65885;55.848;35.916;2023-04-24T00:34:27;3.80;;;2.25;;
76939;SDS011;65885;55.848;35.916;2023-04-24T00:36:55;4.45;;;2.33;;
76939;SDS011;65885;55.848;35.916;2023-04-24T00:39:22;2.95;;;2.08;;
76939;SDS011;65885;55.848;35.916;2023-04-24T00:41:49;3.78;;;2.35;;
76939;SDS011;65885;55.848;35.916;2023-04-24T00:44:19;5.40;;;2.83;;
76939;SDS011;65885;55.848;35.916;2023-04-24T00:46:47;3.30;;;2.22;;
76939;SDS011;65885;55.848;35.916;2023-04-24T00:49:19;3.05;;;2.60;;
76939;SDS011;65885;55.848;35.916;2023-04-24T00:51:48;5.28;;;2.83;;
76939;SDS011;65885;55.848;35.916;2023-04-24T00:54:17;4.47;;;2.88;;
76939;SDS011;65885;55.848;35.916;2023-04-24T00:56:45;4.13;;;2.75;;
76939;SDS011;65885;55.848;35.916;2023-04-24T00:59:13;4.93;;;2.75;;
76939;SDS011;65885;55.848;35.916;2023-04-24T01:01:44;4.30;;;2.70;;
76939;SDS011;65885;55.848;35.916;2023-04-24T01:04:12;3.25;;;2.67;;
76939;SDS011;65885;55.848;35.916;2023-04-24T01:06:40;6.45;;;3.00;;
76939;SDS011;65885;55.848;35.916;2023-04-24T01:09:11;4.32;;;2.65;;
76939;SDS011;65885;55.848;35.916;2023-04-24T01:11:40;4.35;;;2.53;;
76939;SDS011;65885;55.848;35.916;2023-04-24T01:14:08;6.38;;;3.28;;
76939;SDS011;65885;55.848;35.916;2023-04-24T01:16:37;4.63;;;2.53;;
76939;SDS011;65885;55.848;35.916;2023-04-24T01:19:06;5.97;;;2.45;;
76939;SDS011;65885;55.848;35.916;2023-04-24T01:21:34;6.28;;;2.70;;
76939;SDS011;65885;55.848;35.916;2023-04-24T01:24:06;3.67;;;2.33;;
76939;SDS011;65885;55.848;35.916;2023-04-24T01:26:33;4.07;;;2.40;;
76939;SDS011;65885;55.848;35.916;2023-04-24T01:29:01;4.35;;;3.13;;
76939;SDS011;65885;55.848;35.916;2023-04-24T01:31:29;6.00;;;2.88;;
76939;SDS011;65885;55.848;35.916;2023-04-24T01:33:57;4.53;;;3.08;;
76939;SDS011;65885;55.848;35.916;2023-04-24T01:36:24;4.18;;;2.95;;
76939;SDS011;65885;55.848;35.916;2023-04-24T01:38:54;5.15;;;3.17;;
76939;SDS011;65885;55.848;35.916;2023-04-24T01:41:22;3.83;;;2.60;;
76939;SDS011;65885;55.848;35.916;2023-04-24T01:43:50;3.78;;;2.38;;
76939;SDS011;65885;55.848;35.916;2023-04-24T01:46:18;5.43;;;2.50;;
76939;SDS011;65885;55.848;35.916;2023-04-24T01:48:46;3.25;;;2.42;;
76939;SDS011;65885;55.848;35.916;2023-04-24T01:51:13;4.30;;;2.72;;
76939;SDS011;65885;55.848;35.916;2023-04-24T01:53:40;4.72;;;2.78;;
76939;SDS011;65885;55.848;35.916;2023-04-24T01:56:08;4.40;;;2.85;;
76939;SDS011;65885;55.848;35.916;2023-04-24T01:58:37;4.35;;;2.83;;
76939;SDS011;65885;55.848;35.916;2023-04-24T02:01:05;3.17;;;2.38;;
76939;SDS011;65885;55.848;35.916;2023-04-24T02:03:33;4.65;;;2.78;;
76939;SDS011;65885;55.848;35.916;2023-04-24T02:06:01;3.88;;;2.97;;
76939;SDS011;65885;55.848;35.916;2023-04-24T02:08:28;3.72;;;2.53;;
76939;SDS011;65885;55.848;35.916;2023-04-24T02:10:56;3.55;;;2.33;;
76939;SDS011;65885;55.848;35.916;2023-04-24T02:13:23;4.07;;;2.75;;
76939;SDS011;65885;55.848;35.916;2023-04-24T02:15:52;4.20;;;3.15;;
76939;SDS011;65885;55.848;35.916;2023-04-24T02:18:39;3.25;;;2.30;;
76939;SDS011;65885;55.848;35.916;2023-04-24T02:21:06;5.15;;;3.25;;
76939;SDS011;65885;55.848;35.916;2023-04-24T02:23:34;5.63;;;3.38;;
76939;SDS011;65885;55.848;35.916;2023-04-24T02:26:02;5.10;;;3.25;;
76939;SDS011;65885;55.848;35.916;2023-04-24T02:28:29;5.32;;;3.13;;
76939;SDS011;65885;55.848;35.916;2023-04-24T02:30:58;3.08;;;2.33;;
76939;SDS011;65885;55.848;35.916;2023-04-24T02:33:26;6.07;;;3.40;;
76939;SDS011;65885;55.848;35.916;2023-04-24T02:35:53;4.05;;;2.88;;
76939;SDS011;65885;55.848;35.916;2023-04-24T02:38:21;4.18;;;3.55;;
76939;SDS011;65885;55.848;35.916;2023-04-24T02:40:49;4.63;;;3.00;;
76939;SDS011;65885;55.848;35.916;2023-04-24T02:43:16;5.63;;;3.65;;
76939;SDS011;65885;55.848;35.916;2023-04-24T02:45:44;4.28;;;3.60;;
76939;SDS011;65885;55.848;35.916;2023-04-24T02:48:13;4.93;;;3.40;;
76939;SDS011;65885;55.848;35.916;2023-04-24T02:50:40;4.88;;;3.58;;
76939;SDS011;65885;55.848;35.916;2023-04-24T02:53:07;5.13;;;3.58;;
76939;SDS011;65885;55.848;35.916;2023-04-24T02:55:35;4.97;;;3.58;;
76939;SDS011;65885;55.848;35.916;2023-04-24T02:58:02;7.57;;;3.63;;
76939;SDS011;65885;55.848;35.916;2023-04-24T03:00:31;5.53;;;3.75;;
76939;SDS011;65885;55.848;35.916;2023-04-24T03:02:58;5.30;;;3.42;;
76939;SDS011;65885;55.848;35.916;2023-04-24T03:05:27;6.22;;;3.92;;
76939;SDS011;65885;55.848;35.916;2023-04-24T03:07:56;6.00;;;3.80;;
76939;SDS011;65885;55.848;35.916;2023-04-24T03:10:24;7.13;;;4.00;;
76939;SDS011;65885;55.848;35.916;2023-04-24T03:12:51;5.50;;;3.58;;
76939;SDS011;65885;55.848;35.916;2023-04-24T03:15:20;7.75;;;4.47;;
76939;SDS011;65885;55.848;35.916;2023-04-24T03:17:47;12.30;;;6.15;;
76939;SDS011;65885;55.848;35.916;2023-04-24T03:20:15;11.02;;;5.38;;
76939;SDS011;65885;55.848;35.916;2023-04-24T03:22:44;8.13;;;5.00;;
76939;SDS011;65885;55.848;35.916;2023-04-24T03:25:12;6.85;;;4.43;;
76939;SDS011;65885;55.848;35.916;2023-04-24T03:27:39;6.07;;;4.47;;
76939;SDS011;65885;55.848;35.916;2023-04-24T03:30:07;6.15;;;4.30;;
76939;SDS011;65885;55.848;35.916;2023-04-24T03:32:35;6.70;;;4.80;;
76939;SDS011;65885;55.848;35.916;2023-04-24T03:35:05;6.53;;;4.40;;
76939;SDS011;65885;55.848;35.916;2023-04-24T03:37:33;5.85;;;3.72;;
76939;SDS011;65885;55.848;35.916;2023-04-24T03:40:02;6.80;;;3.85;;
76939;SDS011;65885;55.848;35.916;2023-04-24T03:42:31;6.20;;;3.55;;
76939;SDS011;65885;55.848;35.916;2023-04-24T03:44:58;5.88;;;4.13;;
76939;SDS011;65885;55.848;35.916;2023-04-24T03:47:26;4.63;;;3.05;;
76939;SDS011;65885;55.848;35.916;2023-04-24T03:49:53;5.00;;;3.50;;
76939;SDS011;65885;55.848;35.916;2023-04-24T03:52:21;5.80;;;3.80;;
76939;SDS011;65885;55.848;35.916;2023-04-24T03:54:49;6.43;;;3.58;;
76939;SDS011;65885;55.848;35.916;2023-04-24T03:57:17;5.18;;;3.33;;
76939;SDS011;65885;55.848;35.916;2023-04-24T03:59:46;5.03;;;3.35;;
76939;SDS011;65885;55.848;35.916;2023-04-24T04:02:13;5.50;;;3.30;;
76939;SDS011;65885;55.848;35.916;2023-04-24T04:04:40;4.18;;;2.90;;
76939;SDS011;65885;55.848;35.916;2023-04-24T04:07:08;5.38;;;3.17;;
76939;SDS011;65885;55.848;35.916;2023-04-24T04:09:36;5.07;;;3.83;;
76939;SDS011;65885;55.848;35.916;2023-04-24T04:12:04;4.43;;;2.60;;
76939;SDS011;65885;55.848;35.916;2023-04-24T04:14:32;4.68;;;3.20;;
76939;SDS011;65885;55.848;35.916;2023-04-24T04:17:00;4.55;;;3.35;;
76939;SDS011;65885;55.848;35.916;2023-04-24T04:19:28;5.10;;;3.47;;
76939;SDS011;65885;55.848;35.916;2023-04-24T04:21:56;4.72;;;3.35;;
76939;SDS011;65885;55.848;35.916;2023-04-24T04:24:23;5.68;;;3.35;;
76939;SDS011;65885;55.848;35.916;2023-04-24T04:26:51;4.82;;;3.35;;
76939;SDS011;65885;55.848;35.916;2023-04-24T04:29:21;4.28;;;3.13;;
76939;SDS011;65885;55.848;35.916;2023-04-24T04:31:51;5.72;;;3.38;;
76939;SDS011;65885;55.848;35.916;2023-04-24T04:34:18;5.85;;;3.80;;
76939;SDS011;65885;55.848;35.916;2023-04-24T04:36:45;6.25;;;4.35;;
76939;SDS011;65885;55.848;35.916;2023-04-24T04:39:13;5.85;;;3.90;;
76939;SDS011;65885;55.848;35.916;2023-04-24T04:41:42;8.57;;;4.57;;
76939;SDS011;65885;55.848;35.916;2023-04-24T04:44:09;6.38;;;4.40;;
76939;SDS011;65885;55.848;35.916;2023-04-24T04:46:38;8.02;;;4.53;;
76939;SDS011;65885;55.848;35.916;2023-04-24T04:49:08;6.00;;;4.30;;
76939;SDS011;65885;55.848;35.916;2023-04-24T04:51:36;6.15;;;4.15;;
76939;SDS011;65885;55.848;35.916;2023-04-24T04:54:03;6.65;;;4.60;;
76939;SDS011;65885;55.848;35.916;2023-04-24T04:56:31;6.50;;;4.50;;
76939;SDS011;65885;55.848;35.916;2023-04-24T04:58:58;7.03;;;4.63;;
76939;SDS011;65885;55.848;35.916;2023-04-24T05:01:26;8.27;;;5.63;;
76939;SDS011;65885;55.848;35.916;2023-04-24T05:03:54;6.85;;;4.90;;
76939;SDS011;65885;55.848;35.916;2023-04-24T05:06:23;7.85;;;5.40;;
76939;SDS011;65885;55.848;35.916;2023-04-24T05:08:51;8.23;;;5.25;;
76939;SDS011;65885;55.848;35.916;2023-04-24T05:11:22;7.25;;;4.60;;
76939;SDS011;65885;55.848;35.916;2023-04-24T05:13:49;6.13;;;4.95;;
76939;SDS011;65885;55.848;35.916;2023-04-24T05:16:17;6.72;;;4.82;;
76939;SDS011;65885;55.848;35.916;2023-04-24T05:18:44;6.55;;;5.22;;
76939;SDS011;65885;55.848;35.916;2023-04-24T05:21:12;6.53;;;4.70;;
76939;SDS011;65885;55.848;35.916;2023-04-24T05:23:40;6.43;;;4.97;;
76939;SDS011;65885;55.848;35.916;2023-04-24T05:26:08;6.65;;;5.22;;
76939;SDS011;65885;55.848;35.916;2023-04-24T05:28:35;7.60;;;5.85;;
76939;SDS011;65885;55.848;35.916;2023-04-24T05:31:03;8.23;;;5.82;;
76939;SDS011;65885;55.848;35.916;2023-04-24T05:33:30;7.28;;;5.40;;
76939;SDS011;65885;55.848;35.916;2023-04-24T05:35:58;6.50;;;5.50;;
76939;SDS011;65885;55.848;35.916;2023-04-24T05:38:25;9.77;;;5.90;;
76939;SDS011;65885;55.848;35.916;2023-04-24T05:40:54;9.23;;;5.57;;
76939;SDS011;65885;55.848;35.916;2023-04-24T05:43:21;7.53;;;5.65;;
76939;SDS011;65885;55.848;35.916;2023-04-24T05:45:49;6.80;;;4.95;;
76939;SDS011;65885;55.848;35.916;2023-04-24T05:48:16;7.65;;;5.53;;
76939;SDS011;65885;55.848;35.916;2023-04-24T05:50:44;7.72;;;5.53;;
76939;SDS011;65885;55.848;35.916;2023-04-24T05:53:13;8.45;;;5.70;;
76939;SDS011;65885;55.848;35.916;2023-04-24T05:55:40;6.45;;;5.38;;
76939;SDS011;65885;55.848;35.916;2023-04-24T05:58:09;7.00;;;5.30;;
76939;SDS011;65885;55.848;35.916;2023-04-24T06:00:37;7.93;;;5.55;;
76939;SDS011;65885;55.848;35.916;2023-04-24T06:03:05;8.63;;;5.20;;
76939;SDS011;65885;55.848;35.916;2023-04-24T06:05:33;6.93;;;5.18;;
76939;SDS011;65885;55.848;35.916;2023-04-24T06:08:00;7.57;;;5.30;;
76939;SDS011;65885;55.848;35.916;2023-04-24T06:10:28;8.98;;;5.93;;
76939;SDS011;65885;55.848;35.916;2023-04-24T06:12:55;6.32;;;4.90;;
76939;SDS011;65885;55.848;35.916;2023-04-24T06:15:28;7.15;;;5.70;;
76939;SDS011;65885;55.848;35.916;2023-04-24T06:17:56;8.25;;;5.97;;
76939;SDS011;65885;55.848;35.916;2023-04-24T06:20:24;10.65;;;5.78;;
76939;SDS011;65885;55.848;35.916;2023-04-24T06:22:52;8.13;;;5.75;;
76939;SDS011;65885;55.848;35.916;2023-04-24T06:25:19;8.48;;;6.03;;
76939;SDS011;65885;55.848;35.916;2023-04-24T06:27:47;8.30;;;5.53;;
76939;SDS011;65885;55.848;35.916;2023-04-24T06:30:15;11.02;;;6.22;;
76939;SDS011;65885;55.848;35.916;2023-04-24T06:32:43;9.88;;;6.65;;
76939;SDS011;65885;55.848;35.916;2023-04-24T06:35:11;8.30;;;6.20;;
76939;SDS011;65885;55.848;35.916;2023-04-24T06:37:38;8.90;;;6.32;;
76939;SDS011;65885;55.848;35.916;2023-04-24T06:40:06;7.95;;;6.07;;
76939;SDS011;65885;55.848;35.916;2023-04-24T06:42:36;8.13;;;5.85;;
76939;SDS011;65885;55.848;35.916;2023-04-24T06:45:04;9.07;;;5.90;;
76939;SDS011;65885;55.848;35.916;2023-04-24T06:47:34;10.68;;;7.43;;
76939;SDS011;65885;55.848;35.916;2023-04-24T06:52:33;10.55;;;8.43;;
76939;SDS011;65885;55.848;35.916;2023-04-24T06:55:01;10.63;;;7.97;;
76939;SDS011;65885;55.848;35.916;2023-04-24T06:57:31;10.40;;;6.85;;
76939;SDS011;65885;55.848;35.916;2023-04-24T06:59:59;8.73;;;6.60;;
76939;SDS011;65885;55.848;35.916;2023-04-24T07:02:26;8.27;;;6.22;;
76939;SDS011;65885;55.848;35.916;2023-04-24T07:04:53;8.50;;;6.22;;
76939;SDS011;65885;55.848;35.916;2023-04-24T07:07:22;8.82;;;6.32;;
76939;SDS011;65885;55.848;35.916;2023-04-24T07:09:50;8.57;;;6.15;;
76939;SDS011;65885;55.848;35.916;2023-04-24T07:12:18;8.30;;;6.13;;
76939;SDS011;65885;55.848;35.916;2023-04-24T07:14:47;7.47;;;6.07;;
76939;SDS011;65885;55.848;35.916;2023-04-24T07:17:14;7.97;;;6.00;;
76939;SDS011;65885;55.848;35.916;2023-04-24T07:19:42;8.13;;;6.15;;
76939;SDS011;65885;55.848;35.916;2023-04-24T07:22:09;7.40;;;5.70;;
76939;SDS011;65885;55.848;35.916;2023-04-24T07:24:43;9.85;;;5.50;;
76939;SDS011;65885;55.848;35.916;2023-04-24T07:27:11;8.55;;;6.00;;
76939;SDS011;65885;55.848;35.916;2023-04-24T07:29:40;6.70;;;5.07;;
76939;SDS011;65885;55.848;35.916;2023-04-24T07:32:07;7.18;;;5.60;;
76939;SDS011;65885;55.848;35.916;2023-04-24T07:34:35;6.53;;;5.32;;
76939;SDS011;65885;55.848;35.916;2023-04-24T07:37:02;7.55;;;5.88;;
76939;SDS011;65885;55.848;35.916;2023-04-24T07:39:30;7.63;;;5.57;;
76939;SDS011;65885;55.848;35.916;2023-04-24T07:42:00;6.55;;;5.13;;
76939;SDS011;65885;55.848;35.916;2023-04-24T07:44:28;7.75;;;5.90;;
76939;SDS011;65885;55.848;35.916;2023-04-24T07:46:55;7.00;;;5.45;;
76939;SDS011;65885;55.848;35.916;2023-04-24T07:49:23;7.43;;;5.07;;
76939;SDS011;65885;55.848;35.916;2023-04-24T07:51:50;7.40;;;5.53;;
76939;SDS011;65885;55.848;35.916;2023-04-24T07:54:17;8.80;;;5.82;;
76939;SDS011;65885;55.848;35.916;2023-04-24T07:56:45;7.43;;;5.45;;
76939;SDS011;65885;55.848;35.916;2023-04-24T07:59:13;7.05;;;5.82;;
76939;SDS011;65885;55.848;35.916;2023-04-24T08:01:41;7.53;;;5.22;;
76939;SDS011;65885;55.848;35.916;2023-04-24T08:04:08;6.72;;;5.15;;
76939;SDS011;65885;55.848;35.916;2023-04-24T08:06:36;6.47;;;5.53;;
76939;SDS011;65885;55.848;35.916;2023-04-24T08:09:03;7.78;;;5.20;;
76939;SDS011;65885;55.848;35.916;2023-04-24T08:11:31;6.63;;;4.35;;
76939;SDS011;65885;55.848;35.916;2023-04-24T08:13:59;6.25;;;4.30;;
76939;SDS011;65885;55.848;35.916;2023-04-24T08:16:28;5.10;;;4.60;;
76939;SDS011;65885;55.848;35.916;2023-04-24T08:18:55;5.70;;;4.10;;
76939;SDS011;65885;55.848;35.916;2023-04-24T08:21:22;5.93;;;3.90;;
76939;SDS011;65885;55.848;35.916;2023-04-24T08:23:51;6.18;;;4.28;;
76939;SDS011;65885;55.848;35.916;2023-04-24T08:26:19;4.65;;;4.10;;
76939;SDS011;65885;55.848;35.916;2023-04-24T08:28:46;4.35;;;3.72;;
76939;SDS011;65885;55.848;35.916;2023-04-24T08:31:13;5.55;;;4.05;;
76939;SDS011;65885;55.848;35.916;2023-04-24T08:33:42;5.22;;;3.85;;
76939;SDS011;65885;55.848;35.916;2023-04-24T08:36:11;5.82;;;4.18;;
76939;SDS011;65885;55.848;35.916;2023-04-24T08:38:38;5.82;;;4.20;;
76939;SDS011;65885;55.848;35.916;2023-04-24T08:41:06;5.68;;;4.40;;
76939;SDS011;65885;55.848;35.916;2023-04-24T08:43:35;6.63;;;4.20;;
76939;SDS011;65885;55.848;35.916;2023-04-24T08:46:05;4.38;;;3.35;;
76939;SDS011;65885;55.848;35.916;2023-04-24T08:48:32;4.22;;;3.28;;
76939;SDS011;65885;55.848;35.916;2023-04-24T08:51:01;4.13;;;3.58;;
76939;SDS011;65885;55.848;35.916;2023-04-24T08:53:31;5.28;;;3.63;;
76939;SDS011;65885;55.848;35.916;2023-04-24T08:55:59;4.60;;;3.30;;
76939;SDS011;65885;55.848;35.916;2023-04-24T08:58:29;4.60;;;3.72;;
76939;SDS011;65885;55.848;35.916;2023-04-24T09:00:57;4.55;;;3.15;;
76939;SDS011;65885;55.848;35.916;2023-04-24T09:03:26;4.03;;;3.20;;
76939;SDS011;65885;55.848;35.916;2023-04-24T09:05:55;5.97;;;4.10;;
76939;SDS011;65885;55.848;35.916;2023-04-24T09:08:25;4.18;;;3.65;;
76939;SDS011;65885;55.848;35.916;2023-04-24T09:10:55;4.47;;;3.08;;
76939;SDS011;65885;55.848;35.916;2023-04-24T09:13:24;4.85;;;3.92;;
76939;SDS011;65885;55.848;35.916;2023-04-24T09:15:52;5.13;;;3.83;;
76939;SDS011;65885;55.848;35.916;2023-04-24T09:18:19;4.78;;;3.65;;
76939;SDS011;65885;55.848;35.916;2023-04-24T09:21:00;5.57;;;4.00;;
76939;SDS011;65885;55.848;35.916;2023-04-24T09:23:31;4.43;;;3.40;;
76939;SDS011;65885;55.848;35.916;2023-04-24T09:26:00;5.53;;;3.42;;
76939;SDS011;65885;55.848;35.916;2023-04-24T09:28:31;6.82;;;3.67;;
76939;SDS011;65885;55.848;35.916;2023-04-24T09:31:04;5.38;;;3.70;;
76939;SDS011;65885;55.848;35.916;2023-04-24T09:33:33;3.90;;;3.47;;
76939;SDS011;65885;55.848;35.916;2023-04-24T09:36:01;4.70;;;3.38;;
76939;SDS011;65885;55.848;35.916;2023-04-24T09:38:34;4.35;;;3.80;;
76939;SDS011;65885;55.848;35.916;2023-04-24T09:41:04;5.22;;;3.15;;
76939;SDS011;65885;55.848;35.916;2023-04-24T09:43:33;6.57;;;3.88;;
76939;SDS011;65885;55.848;35.916;2023-04-24T09:46:04;4.28;;;3.17;;
76939;SDS011;65885;55.848;35.916;2023-04-24T09:48:33;4.55;;;3.17;;
76939;SDS011;65885;55.848;35.916;2023-04-24T09:51:02;5.43;;;3.83;;
76939;SDS011;65885;55.848;35.916;2023-04-24T09:53:33;4.47;;;2.83;;
76939;SDS011;65885;55.848;35.916;2023-04-24T09:56:06;4.70;;;3.90;;
76939;SDS011;65885;55.848;35.916;2023-04-24T09:58:35;3.97;;;3.58;;
76939;SDS011;65885;55.848;35.916;2023-04-24T10:01:03;5.53;;;3.22;;
76939;SDS011;65885;55.848;35.916;2023-04-24T10:03:31;5.20;;;3.45;;
76939;SDS011;65885;55.848;35.916;2023-04-24T10:06:00;5.05;;;3.03;;
76939;SDS011;65885;55.848;35.916;2023-04-24T10:08:34;3.80;;;3.28;;
76939;SDS011;65885;55.848;35.916;2023-04-24T10:11:02;3.75;;;2.80;;
76939;SDS011;65885;55.848;35.916;2023-04-24T10:13:30;3.88;;;3.47;;
76939;SDS011;65885;55.848;35.916;2023-04-24T10:15:59;4.78;;;3.67;;
76939;SDS011;65885;55.848;35.916;2023-04-24T10:18:28;4.28;;;3.30;;
76939;SDS011;65885;55.848;35.916;2023-04-24T10:20:57;3.45;;;2.83;;
76939;SDS011;65885;55.848;35.916;2023-04-24T10:23:27;3.90;;;3.50;;
76939;SDS011;65885;55.848;35.916;2023-04-24T10:26:00;5.55;;;3.70;;
76939;SDS011;65885;55.848;35.916;2023-04-24T10:28:29;4.68;;;3.55;;
76939;SDS011;65885;55.848;35.916;2023-04-24T10:30:58;5.15;;;3.38;;
76939;SDS011;65885;55.848;35.916;2023-04-24T10:33:27;3.00;;;2.67;;
76939;SDS011;65885;55.848;35.916;2023-04-24T10:35:55;4.60;;;3.30;;
76939;SDS011;65885;55.848;35.916;2023-04-24T10:38:25;4.25;;;2.80;;
76939;SDS011;65885;55.848;35.916;2023-04-24T10:40:57;6.00;;;3.33;;
76939;SDS011;65885;55.848;35.916;2023-04-24T10:43:39;3.95;;;3.05;;
76939;SDS011;65885;55.848;35.916;2023-04-24T10:46:07;5.22;;;3.53;;
76939;SDS011;65885;55.848;35.916;2023-04-24T10:48:36;4.45;;;3.10;;
76939;SDS011;65885;55.848;35.916;2023-04-24T10:51:11;5.63;;;3.38;;
76939;SDS011;65885;55.848;35.916;2023-04-24T10:53:39;3.85;;;3.05;;
76939;SDS011;65885;55.848;35.916;2023-04-24T10:56:08;4.40;;;2.67;;
76939;SDS011;65885;55.848;35.916;2023-04-24T10:58:37;3.95;;;3.00;;
76939;SDS011;65885;55.848;35.916;2023-04-24T11:01:06;5.45;;;3.28;;
76939;SDS011;65885;55.848;35.916;2023-04-24T11:03:34;3.75;;;2.83;;
76939;SDS011;65885;55.848;35.916;2023-04-24T11:06:02;4.35;;;2.30;;
76939;SDS011;65885;55.848;35.916;2023-04-24T11:08:31;5.43;;;3.50;;
76939;SDS011;65885;55.848;35.916;2023-04-24T11:11:07;4.38;;;3.00;;
76939;SDS011;65885;55.848;35.916;2023-04-24T11:16:29;5.63;;;3.63;;
76939;SDS011;65885;55.848;35.916;2023-04-24T11:19:01;3.85;;;3.40;;
76939;SDS011;65885;55.848;35.916;2023-04-24T11:21:31;4.65;;;3.40;;
76939;SDS011;65885;55.848;35.916;2023-04-24T11:24:25;3.60;;;3.17;;
76939;SDS011;65885;55.848;35.916;2023-04-24T11:27:12;3.83;;;2.80;;
76939;SDS011;65885;55.848;35.916;2023-04-24T11:32:18;3.25;;;2.95;;
76939;SDS011;65885;55.848;35.916;2023-04-24T11:34:52;3.60;;;3.30;;
76939;SDS011;65885;55.848;35.916;2023-04-24T11:37:22;5.35;;;2.90;;
76939;SDS011;65885;55.848;35.916;2023-04-24T11:39:52;4.47;;;2.58;;
76939;SDS011;65885;55.848;35.916;2023-04-24T11:42:23;4.88;;;2.72;;
76939;SDS011;65885;55.848;35.916;2023-04-24T11:44:52;5.07;;;3.00;;
76939;SDS011;65885;55.848;35.916;2023-04-24T11:47:27;4.03;;;3.00;;
76939;SDS011;65885;55.848;35.916;2023-04-24T11:49:55;3.67;;;2.85;;
76939;SDS011;65885;55.848;35.916;2023-04-24T11:52:23;4.38;;;3.70;;
76939;SDS011;65885;55.848;35.916;2023-04-24T11:54:52;4.25;;;3.10;;
76939;SDS011;65885;55.848;35.916;2023-04-24T11:57:20;4.35;;;3.35;;
76939;SDS011;65885;55.848;35.916;2023-04-24T11:59:53;3.10;;;2.80;;
76939;SDS011;65885;55.848;35.916;2023-04-24T12:02:22;4.45;;;3.22;;
76939;SDS011;65885;55.848;35.916;2023-04-24T12:04:50;6.45;;;2.90;;
76939;SDS011;65885;55.848;35.916;2023-04-24T12:07:19;4.97;;;2.80;;
76939;SDS011;65885;55.848;35.916;2023-04-24T12:09:47;4.00;;;2.90;;
76939;SDS011;65885;55.848;35.916;2023-04-24T12:12:27;3.88;;;2.70;;
76939;SDS011;65885;55.848;35.916;2023-04-24T12:15:06;4.03;;;3.03;;
76939;SDS011;65885;55.848;35.916;2023-04-24T12:17:36;7.82;;;2.97;;
76939;SDS011;65885;55.848;35.916;2023-04-24T12:20:10;4.30;;;3.80;;
76939;SDS011;65885;55.848;35.916;2023-04-24T12:22:46;4.05;;;3.00;;
76939;SDS011;65885;55.848;35.916;2023-04-24T12:25:23;5.50;;;3.20;;
76939;SDS011;65885;55.848;35.916;2023-04-24T12:27:55;4.28;;;3.30;;
76939;SDS011;65885;55.848;35.916;2023-04-24T12:30:39;4.80;;;4.30;;
76939;SDS011;65885;55.848;35.916;2023-04-24T12:33:10;4.47;;;3.95;;
76939;SDS011;65885;55.848;35.916;2023-04-24T12:35:39;4.28;;;3.40;;
76939;SDS011;65885;55.848;35.916;2023-04-24T12:38:08;4.38;;;3.72;;
76939;SDS011;65885;55.848;35.916;2023-04-24T12:43:14;4.22;;;3.30;;
76939;SDS011;65885;55.848;35.916;2023-04-24T12:45:44;6.28;;;4.75;;
76939;SDS011;65885;55.848;35.916;2023-04-24T12:48:12;4.38;;;3.97;;
76939;SDS011;65885;55.848;35.916;2023-04-24T12:50:40;3.67;;;3.00;;
76939;SDS011;65885;55.848;35.916;2023-04-24T12:53:16;4.63;;;3.30;;
76939;SDS011;65885;55.848;35.916;2023-04-24T12:55:44;3.45;;;3.15;;
76939;SDS011;65885;55.848;35.916;2023-04-24T12:58:20;3.75;;;2.80;;
76939;SDS011;65885;55.848;35.916;2023-04-24T13:00:48;4.57;;;2.92;;
76939;SDS011;65885;55.848;35.916;2023-04-24T13:03:19;4.32;;;3.30;;
76939;SDS011;65885;55.848;35.916;2023-04-24T13:05:48;5.05;;;3.33;;
76939;SDS011;65885;55.848;35.916;2023-04-24T13:08:15;4.38;;;3.53;;
76939;SDS011;65885;55.848;35.916;2023-04-24T13:10:43;5.93;;;3.40;;
76939;SDS011;65885;55.848;35.916;2023-04-24T13:13:11;4.28;;;2.80;;
76939;SDS011;65885;55.848;35.916;2023-04-24T13:15:40;3.28;;;2.47;;
76939;SDS011;65885;55.848;35.916;2023-04-24T13:18:08;5.30;;;3.17;;
76939;SDS011;65885;55.848;35.916;2023-04-24T13:20:35;4.60;;;3.15;;
76939;SDS011;65885;55.848;35.916;2023-04-24T13:23:02;3.42;;;3.13;;
76939;SDS011;65885;55.848;35.916;2023-04-24T13:25:34;4.28;;;3.20;;
76939;SDS011;65885;55.848;35.916;2023-04-24T13:28:06;3.75;;;2.63;;
76939;SDS011;65885;55.848;35.916;2023-04-24T13:30:33;3.90;;;2.92;;
76939;SDS011;65885;55.848;35.916;2023-04-24T13:33:03;5.13;;;3.38;;
76939;SDS011;65885;55.848;35.916;2023-04-24T13:35:30;4.55;;;3.03;;
76939;SDS011;65885;55.848;35.916;2023-04-24T13:37:58;3.28;;;2.47;;
76939;SDS011;65885;55.848;35.916;2023-04-24T13:40:26;3.15;;;2.70;;
76939;SDS011;65885;55.848;35.916;2023-04-24T13:42:54;3.08;;;2.22;;
76939;SDS011;65885;55.848;35.916;2023-04-24T13:45:23;2.92;;;2.50;;
76939;SDS011;65885;55.848;35.916;2023-04-24T13:47:54;3.13;;;2.47;;
76939;SDS011;65885;55.848;35.916;2023-04-24T13:50:23;3.05;;;2.70;;
76939;SDS011;65885;55.848;35.916;2023-04-24T13:52:51;3.72;;;2.38;;
76939;SDS011;65885;55.848;35.916;2023-04-24T13:55:19;2.60;;;2.35;;
76939;SDS011;65885;55.848;35.916;2023-04-24T13:57:47;2.40;;;2.20;;
76939;SDS011;65885;55.848;35.916;2023-04-24T14:00:15;3.17;;;2.28;;
76939;SDS011;65885;55.848;35.916;2023-04-24T14:02:43;5.05;;;2.53;;
76939;SDS011;65885;55.848;35.916;2023-04-24T14:05:12;2.20;;;2.00;;
76939;SDS011;65885;55.848;35.916;2023-04-24T14:07:40;4.28;;;2.70;;
76939;SDS011;65885;55.848;35.916;2023-04-24T14:10:08;3.20;;;2.30;;
76939;SDS011;65885;55.848;35.916;2023-04-24T14:12:36;3.72;;;2.50;;
76939;SDS011;65885;55.848;35.916;2023-04-24T14:15:04;3.55;;;2.38;;
76939;SDS011;65885;55.848;35.916;2023-04-24T14:17:32;3.58;;;2.17;;
76939;SDS011;65885;55.848;35.916;2023-04-24T14:20:00;3.85;;;2.65;;
76939;SDS011;65885;55.848;35.916;2023-04-24T14:22:31;3.97;;;2.20;;
76939;SDS011;65885;55.848;35.916;2023-04-24T14:25:00;2.47;;;2.15;;
76939;SDS011;65885;55.848;35.916;2023-04-24T14:27:29;2.63;;;2.40;;
76939;SDS011;65885;55.848;35.916;2023-04-24T14:29:56;3.17;;;2.10;;
76939;SDS011;65885;55.848;35.916;2023-04-24T14:32:24;2.50;;;2.25;;
76939;SDS011;65885;55.848;35.916;2023-04-24T14:34:51;3.60;;;2.20;;
76939;SDS011;65885;55.848;35.916;2023-04-24T14:37:18;2.72;;;1.95;;
76939;SDS011;65885;55.848;35.916;2023-04-24T14:39:46;2.97;;;2.30;;
76939;SDS011;65885;55.848;35.916;2023-04-24T14:42:14;3.30;;;2.10;;
76939;SDS011;65885;55.848;35.916;2023-04-24T14:44:43;2.47;;;2.22;;
76939;SDS011;65885;55.848;35.916;2023-04-24T14:47:11;4.03;;;2.40;;
76939;SDS011;65885;55.848;35.916;2023-04-24T14:49:38;2.63;;;2.05;;
76939;SDS011;65885;55.848;35.916;2023-04-24T14:52:06;3.28;;;2.25;;
76939;SDS011;65885;55.848;35.916;2023-04-24T14:54:33;2.90;;;2.10;;